Wednesday, April 25, 2018, 8:04 AM EDT
Back to Local

KELM, Elmira County Airport

Location: Horseheads, NY, United States Lat: 42.167
Local Time: 8:04 AM EDT (12:04 GMT) Lon: -76.9
Time Zone: US/Eastern Elev: 954 ft

Show me the last for .
Show Decoded

2018-04-25 07:53 METAR KELM 251153Z 04005KT 3SM BR OVC009 10/10 A2989 RMK AO2 CIG 004V013 SLP123
                 60003 70005 T01000100 10106 20100 56018 =
2018-04-25 07:22 METAR KELM 251122Z 03006KT 2 1/2SM BR BKN009 OVC012 10/10 A2990 RMK AO2 CIG
                 005V010 T01000100 =
2018-04-25 07:02 METAR KELM 251102Z 04004KT 3SM BR BKN008 OVC013 10/10 A2990 RMK AO2 T01000100 =
2018-04-25 06:53 METAR KELM 251053Z 03005KT 2 1/2SM BR SCT008 OVC012 10/09 A2990 RMK AO2
                 RAB0958E41 SLP126 P0002 T01000094 =
2018-04-25 06:36 METAR KELM 251036Z 03005KT 2 1/2SM -RA BR FEW007 BKN011 OVC019 10/09 A2991 RMK
                 AO2 RAB0958 P0002 T01000094 =
2018-04-25 06:28 METAR KELM 251028Z 02005KT 3SM -RA BR FEW007 BKN011 OVC018 10/09 A2991 RMK AO2
                 RAB0958 P0002 T01000094 =
2018-04-25 06:17 METAR KELM 251017Z 05005KT 2 1/2SM RA BR OVC011 10/09 A2991 RMK AO2 RAB0958
                 P0002 T01000094 =
2018-04-25 05:53 METAR KELM 250953Z 03005KT 8SM OVC011 10/09 A2992 RMK AO2 RAE00B29E41 SLP131
                 P0000 T01000094 =
2018-04-25 04:53 METAR KELM 250853Z AUTO 09009KT 8SM -RA OVC014 10/09 A2995 RMK AO2 RAB21 SLP140
                 P0000 60001 T01000094 56028 =
2018-04-25 04:46 METAR KELM 250846Z AUTO 08009KT 7SM -RA OVC015 10/09 A2995 RMK AO2 RAB21 P0000
                 T01000094 =
2018-04-25 03:53 METAR KELM 250753Z AUTO 08006KT 10SM OVC013 11/09 A2998 RMK AO2 RAE32 SLP150
                 P0000 T01060089 =
2018-04-25 03:34 METAR KELM 250734Z AUTO VRB04KT 10SM BKN014 BKN034 OVC050 11/09 A2998 RMK AO2
                 RAE32 P0000 T01060089 =
2018-04-25 03:21 METAR KELM 250721Z AUTO 10006KT 10SM -RA SCT014 BKN049 OVC060 11/09 A2998 RMK
                 AO2 P0000 T01060089 =
2018-04-25 02:53 METAR KELM 250653Z AUTO 11005KT 9SM -RA OVC012 11/09 A2999 RMK AO2 SLP156 P0001
                 T01060094 =
2018-04-25 02:02 METAR KELM 250602Z AUTO 09008KT 9SM -RA BKN012 OVC017 11/09 A3002 RMK AO2 P0000
                 T01060094 =
2018-04-25 01:53 METAR KELM 250553Z AUTO 09008KT 9SM -RA SCT010 BKN015 OVC021 11/09 A3003 RMK AO2
                 SLP169 P0001 60002 T01060094 10167 20106 56017 =
2018-04-25 01:50 METAR KELM 250550Z AUTO 09008KT 8SM -RA SCT010 BKN015 OVC021 11/09 A3003 RMK AO2
                 P0001 =
2018-04-25 01:23 METAR KELM 250523Z AUTO 08006KT 8SM -RA BKN014 BKN026 OVC035 11/09 A3005 RMK AO2
                 P0000 T01060094 =
2018-04-25 01:15 METAR KELM 250515Z AUTO 08007KT 7SM -RA SCT014 BKN025 OVC037 11/09 A3005 RMK AO2
                 P0000 T01110094 =
2018-04-25 00:53 METAR KELM 250453Z AUTO 09006KT 9SM -RA BKN041 OVC048 11/09 A3006 RMK AO2 SLP179
                 P0000 T01110089 402000044 =
2018-04-24 23:53 METAR KELM 250353Z AUTO VRB04KT 10SM -RA FEW036 SCT046 OVC060 12/08 A3008 RMK
                 AO2 SLP185 P0001 T01170083 =
2018-04-24 22:53 METAR KELM 250253Z 16009KT 9SM -RA BKN047 OVC060 13/07 A3010 RMK AO2 RAB16
                 SLP193 P0000 60000 T01280067 53004 =
2018-04-24 21:53 METAR KELM 250153Z 17012G18KT 10SM OVC065 16/03 A3010 RMK AO2 SLP191 T01560033 =
2018-04-24 20:53 METAR KELM 250053Z 16005KT 10SM OVC090 16/04 A3010 RMK AO2 SLP190 T01560039 =
2018-04-24 19:53 METAR KELM 242353Z 17010KT 10SM OVC110 17/03 A3009 RMK AO2 SLP190 T01670028
                 10200 20167 56005 =
2018-04-24 18:53 METAR KELM 242253Z 17009G17KT 10SM OVC110 17/03 A3009 RMK AO2 SLP191 T01720028 =
2018-04-24 17:53 METAR KELM 242153Z 20011G18KT 10SM FEW110 18/03 A3010 RMK AO2 WSHFT 2046 SLP193
                 T01830033 =
2018-04-24 17:06 METAR KELM 242106Z 21011KT 10SM CLR 19/03 A3010 RMK AO2 WSHFT 2046 T01890028 =
2018-04-24 16:53 METAR KELM 242053Z 22013KT 10SM FEW070 19/03 A3011 RMK AO2 SLP195 T01890028
                 58026 =
2018-04-24 15:53 METAR KELM 241953Z 21010KT 10SM CLR 19/03 A3013 RMK AO2 SLP203 T01890028 =
2018-04-24 14:53 METAR KELM 241853Z 16010G16KT 10SM CLR 19/04 A3016 RMK AO2 SLP213 T01890039 =
2018-04-24 13:53 METAR KELM 241753Z 19008G17KT 10SM CLR 18/03 A3019 RMK AO2 SLP221 T01830028
                 10194 20111 56023 =
2018-04-24 12:53 METAR KELM 241653Z 22016G20KT 10SM CLR 19/04 A3020 RMK AO2 SLP224 T01940044 =
2018-04-24 11:53 METAR KELM 241553Z VRB06KT 10SM CLR 19/03 A3022 RMK AO2 SLP232 T01890033 =
2018-04-24 10:53 METAR KELM 241453Z 21015KT 10SM CLR 17/02 A3026 RMK AO2 SLP243 T01720022 57015 =
2018-04-24 09:53 METAR KELM 241353Z 19013G22KT 10SM CLR 16/00 A3027 RMK AO2 SLP248 T01610000 =
2018-04-24 08:53 METAR KELM 241253Z 22009KT 10SM CLR 14/01 A3029 RMK AO2 SLP256 T01390006 =

Support USWX by starting your Amazon purchase here.